sensor_id;sensor_type;location;lat;lon;timestamp;noise_LAeq;noise_LA_min;noise_LA_max;noise_LA01;noise_LA95
58251;Laerm;51449;51.676;5.812;2023-10-09T00:02:18;39.82;29.58;54.86;;
58251;Laerm;51449;51.676;5.812;2023-10-09T00:04:41;49.96;30.42;68.85;;
58251;Laerm;51449;51.676;5.812;2023-10-09T00:07:05;39.08;29.61;49.24;;
58251;Laerm;51449;51.676;5.812;2023-10-09T00:09:50;57.41;30.03;72.05;;
58251;Laerm;51449;51.676;5.812;2023-10-09T00:12:32;48.71;31.00;66.72;;
58251;Laerm;51449;51.676;5.812;2023-10-09T00:14:55;39.89;31.02;48.97;;
58251;Laerm;51449;51.676;5.812;2023-10-09T00:17:30;40.69;31.96;49.89;;
58251;Laerm;51449;51.676;5.812;2023-10-09T00:19:53;58.53;32.90;71.68;;
58251;Laerm;51449;51.676;5.812;2023-10-09T00:22:21;40.24;31.02;49.94;;
58251;Laerm;51449;51.676;5.812;2023-10-09T00:24:46;53.42;33.26;70.04;;
58251;Laerm;51449;51.676;5.812;2023-10-09T00:27:12;39.87;32.22;48.98;;
58251;Laerm;51449;51.676;5.812;2023-10-09T00:29:34;55.84;33.01;71.61;;
58251;Laerm;51449;51.676;5.812;2023-10-09T00:32:00;40.32;32.40;54.51;;
58251;Laerm;51449;51.676;5.812;2023-10-09T00:34:28;57.34;32.54;74.48;;
58251;Laerm;51449;51.676;5.812;2023-10-09T00:36:50;57.04;32.05;78.94;;
58251;Laerm;51449;51.676;5.812;2023-10-09T00:39:13;55.51;32.04;69.35;;
58251;Laerm;51449;51.676;5.812;2023-10-09T00:41:52;55.13;33.07;71.95;;
58251;Laerm;51449;51.676;5.812;2023-10-09T00:44:15;55.62;31.13;71.62;;
58251;Laerm;51449;51.676;5.812;2023-10-09T00:46:36;51.61;29.78;83.28;;
58251;Laerm;51449;51.676;5.812;2023-10-09T00:49:04;44.97;29.26;61.53;;
58251;Laerm;51449;51.676;5.812;2023-10-09T00:51:32;39.82;31.25;51.97;;
58251;Laerm;51449;51.676;5.812;2023-10-09T00:53:59;47.04;30.70;66.15;;
58251;Laerm;51449;51.676;5.812;2023-10-09T00:56:37;39.29;29.38;49.20;;
58251;Laerm;51449;51.676;5.812;2023-10-09T00:59:05;54.88;28.60;71.55;;
58251;Laerm;51449;51.676;5.812;2023-10-09T01:01:36;39.61;29.03;56.65;;
58251;Laerm;51449;51.676;5.812;2023-10-09T01:04:03;52.63;32.22;69.84;;
58251;Laerm;51449;51.676;5.812;2023-10-09T01:06:33;55.84;29.52;72.80;;
58251;Laerm;51449;51.676;5.812;2023-10-09T01:08:57;56.17;29.16;71.33;;
58251;Laerm;51449;51.676;5.812;2023-10-09T01:11:31;47.10;33.13;64.33;;
58251;Laerm;51449;51.676;5.812;2023-10-09T01:13:53;51.02;32.94;69.44;;
58251;Laerm;51449;51.676;5.812;2023-10-09T01:16:21;39.63;32.45;49.18;;
58251;Laerm;51449;51.676;5.812;2023-10-09T01:18:47;54.78;33.37;72.16;;
58251;Laerm;51449;51.676;5.812;2023-10-09T01:21:12;45.56;31.57;62.22;;
58251;Laerm;51449;51.676;5.812;2023-10-09T01:23:36;58.55;31.83;76.12;;
58251;Laerm;51449;51.676;5.812;2023-10-09T01:26:17;38.91;30.29;49.84;;
58251;Laerm;51449;51.676;5.812;2023-10-09T01:28:41;54.74;30.19;70.70;;
58251;Laerm;51449;51.676;5.812;2023-10-09T01:31:04;39.81;30.94;55.08;;
58251;Laerm;51449;51.676;5.812;2023-10-09T01:33:28;55.11;31.42;71.18;;
58251;Laerm;51449;51.676;5.812;2023-10-09T01:35:50;54.64;31.50;69.88;;
58251;Laerm;51449;51.676;5.812;2023-10-09T01:38:17;55.32;30.67;69.88;;
58251;Laerm;51449;51.676;5.812;2023-10-09T01:40:40;38.97;30.53;49.16;;
58251;Laerm;51449;51.676;5.812;2023-10-09T01:43:02;38.95;30.03;49.02;;
58251;Laerm;51449;51.676;5.812;2023-10-09T01:45:26;39.80;30.36;51.81;;
58251;Laerm;51449;51.676;5.812;2023-10-09T01:47:48;38.92;29.20;49.45;;
58251;Laerm;51449;51.676;5.812;2023-10-09T01:50:14;53.38;29.71;69.90;;
58251;Laerm;51449;51.676;5.812;2023-10-09T01:52:43;56.97;31.48;72.47;;
58251;Laerm;51449;51.676;5.812;2023-10-09T01:55:06;39.62;29.83;49.01;;
58251;Laerm;51449;51.676;5.812;2023-10-09T01:57:31;47.05;31.33;63.42;;
58251;Laerm;51449;51.676;5.812;2023-10-09T01:59:55;57.50;31.78;71.55;;
58251;Laerm;51449;51.676;5.812;2023-10-09T02:02:22;50.17;30.44;68.01;;
58251;Laerm;51449;51.676;5.812;2023-10-09T02:05:05;46.93;31.44;64.90;;
58251;Laerm;51449;51.676;5.812;2023-10-09T02:07:37;47.24;32.71;64.45;;
58251;Laerm;51449;51.676;5.812;2023-10-09T02:10:03;57.77;34.36;69.47;;
58251;Laerm;51449;51.676;5.812;2023-10-09T02:12:25;57.99;31.36;74.98;;
58251;Laerm;51449;51.676;5.812;2023-10-09T02:14:48;54.75;33.48;69.55;;
58251;Laerm;51449;51.676;5.812;2023-10-09T02:17:10;56.49;33.88;75.90;;
58251;Laerm;51449;51.676;5.812;2023-10-09T02:19:39;53.55;33.26;66.97;;
58251;Laerm;51449;51.676;5.812;2023-10-09T02:22:04;58.59;34.92;70.98;;
58251;Laerm;51449;51.676;5.812;2023-10-09T02:24:34;54.76;34.82;67.59;;
58251;Laerm;51449;51.676;5.812;2023-10-09T02:27:25;51.19;33.90;67.52;;
58251;Laerm;51449;51.676;5.812;2023-10-09T02:30:08;58.65;33.14;73.79;;
58251;Laerm;51449;51.676;5.812;2023-10-09T02:32:37;55.60;34.44;69.55;;
58251;Laerm;51449;51.676;5.812;2023-10-09T02:35:02;53.79;34.30;69.80;;
58251;Laerm;51449;51.676;5.812;2023-10-09T02:37:32;57.17;34.50;70.51;;
58251;Laerm;51449;51.676;5.812;2023-10-09T02:39:54;39.57;31.19;54.92;;
58251;Laerm;51449;51.676;5.812;2023-10-09T02:42:18;50.34;31.15;68.39;;
58251;Laerm;51449;51.676;5.812;2023-10-09T02:44:45;55.36;32.05;71.05;;
58251;Laerm;51449;51.676;5.812;2023-10-09T02:47:13;52.79;32.15;67.41;;
58251;Laerm;51449;51.676;5.812;2023-10-09T02:49:42;55.13;32.48;71.94;;
58251;Laerm;51449;51.676;5.812;2023-10-09T02:52:04;57.42;34.15;73.85;;
58251;Laerm;51449;51.676;5.812;2023-10-09T02:54:30;49.09;31.70;65.63;;
58251;Laerm;51449;51.676;5.812;2023-10-09T02:56:57;59.28;35.38;72.61;;
58251;Laerm;51449;51.676;5.812;2023-10-09T02:59:31;55.10;34.82;69.82;;
58251;Laerm;51449;51.676;5.812;2023-10-09T03:01:53;60.29;34.12;79.47;;
58251;Laerm;51449;51.676;5.812;2023-10-09T03:04:15;53.84;32.97;69.88;;
58251;Laerm;51449;51.676;5.812;2023-10-09T03:06:38;49.86;32.95;68.30;;
58251;Laerm;51449;51.676;5.812;2023-10-09T03:09:05;59.06;35.81;72.40;;
58251;Laerm;51449;51.676;5.812;2023-10-09T03:11:38;59.88;34.00;73.11;;
58251;Laerm;51449;51.676;5.812;2023-10-09T03:14:00;63.35;36.33;74.12;;
58251;Laerm;51449;51.676;5.812;2023-10-09T03:16:21;61.19;37.30;72.39;;
58251;Laerm;51449;51.676;5.812;2023-10-09T03:18:43;59.94;35.61;72.26;;
58251;Laerm;51449;51.676;5.812;2023-10-09T03:21:05;57.25;35.81;72.75;;
58251;Laerm;51449;51.676;5.812;2023-10-09T03:23:28;58.54;37.61;72.06;;
58251;Laerm;51449;51.676;5.812;2023-10-09T03:25:52;53.46;35.83;67.01;;
58251;Laerm;51449;51.676;5.812;2023-10-09T03:28:24;62.35;36.30;71.84;;
58251;Laerm;51449;51.676;5.812;2023-10-09T03:30:46;62.96;39.86;78.96;;
58251;Laerm;51449;51.676;5.812;2023-10-09T03:33:09;61.78;39.43;72.81;;
58251;Laerm;51449;51.676;5.812;2023-10-09T03:35:31;60.35;39.42;73.51;;
58251;Laerm;51449;51.676;5.812;2023-10-09T03:37:57;60.41;37.38;87.76;;
58251;Laerm;51449;51.676;5.812;2023-10-09T03:40:23;60.51;37.01;76.43;;
58251;Laerm;51449;51.676;5.812;2023-10-09T03:42:44;61.10;36.57;72.26;;
58251;Laerm;51449;51.676;5.812;2023-10-09T03:45:08;61.83;37.99;74.31;;
58251;Laerm;51449;51.676;5.812;2023-10-09T03:47:46;61.96;38.12;79.08;;
58251;Laerm;51449;51.676;5.812;2023-10-09T03:50:10;61.89;39.23;73.44;;
58251;Laerm;51449;51.676;5.812;2023-10-09T03:52:48;62.32;38.81;75.75;;
58251;Laerm;51449;51.676;5.812;2023-10-09T03:55:14;58.60;36.73;72.58;;
58251;Laerm;51449;51.676;5.812;2023-10-09T03:57:36;63.44;40.77;75.95;;
58251;Laerm;51449;51.676;5.812;2023-10-09T04:00:01;59.50;40.15;74.16;;
58251;Laerm;51449;51.676;5.812;2023-10-09T04:02:33;63.94;40.74;77.64;;
58251;Laerm;51449;51.676;5.812;2023-10-09T04:04:55;59.96;40.55;76.90;;
58251;Laerm;51449;51.676;5.812;2023-10-09T04:07:17;60.23;39.67;71.56;;
58251;Laerm;51449;51.676;5.812;2023-10-09T04:09:39;61.40;41.42;72.49;;
58251;Laerm;51449;51.676;5.812;2023-10-09T04:12:06;60.85;39.57;72.29;;
58251;Laerm;51449;51.676;5.812;2023-10-09T04:14:30;64.08;40.84;74.84;;
58251;Laerm;51449;51.676;5.812;2023-10-09T04:16:55;62.87;38.79;74.67;;
58251;Laerm;51449;51.676;5.812;2023-10-09T04:19:50;63.08;38.43;73.36;;
58251;Laerm;51449;51.676;5.812;2023-10-09T04:22:30;60.51;41.62;76.38;;
58251;Laerm;51449;51.676;5.812;2023-10-09T04:25:00;64.05;41.34;72.93;;
58251;Laerm;51449;51.676;5.812;2023-10-09T04:27:22;64.17;39.69;80.18;;
58251;Laerm;51449;51.676;5.812;2023-10-09T04:29:48;64.44;40.84;79.92;;
58251;Laerm;51449;51.676;5.812;2023-10-09T04:32:11;62.24;44.98;73.41;;
58251;Laerm;51449;51.676;5.812;2023-10-09T04:34:40;67.54;46.41;78.78;;
58251;Laerm;51449;51.676;5.812;2023-10-09T04:37:10;66.38;40.90;75.79;;
58251;Laerm;51449;51.676;5.812;2023-10-09T04:39:50;65.73;43.16;73.17;;
58251;Laerm;51449;51.676;5.812;2023-10-09T04:42:24;60.68;38.84;70.68;;
58251;Laerm;51449;51.676;5.812;2023-10-09T04:44:46;60.88;39.27;71.91;;
58251;Laerm;51449;51.676;5.812;2023-10-09T04:47:24;65.80;40.37;75.97;;
58251;Laerm;51449;51.676;5.812;2023-10-09T04:49:47;58.36;39.53;69.86;;
58251;Laerm;51449;51.676;5.812;2023-10-09T04:52:19;66.26;52.83;76.13;;
58251;Laerm;51449;51.676;5.812;2023-10-09T04:54:46;63.93;42.34;75.21;;
58251;Laerm;51449;51.676;5.812;2023-10-09T04:57:27;64.44;39.84;78.32;;
58251;Laerm;51449;51.676;5.812;2023-10-09T04:59:49;66.07;46.19;77.82;;
58251;Laerm;51449;51.676;5.812;2023-10-09T05:02:10;64.46;47.62;72.82;;
58251;Laerm;51449;51.676;5.812;2023-10-09T05:04:40;66.94;46.42;77.01;;
58251;Laerm;51449;51.676;5.812;2023-10-09T05:07:03;62.76;40.07;73.74;;
58251;Laerm;51449;51.676;5.812;2023-10-09T05:09:44;65.79;44.85;82.81;;
58251;Laerm;51449;51.676;5.812;2023-10-09T05:12:17;64.47;45.48;72.82;;
58251;Laerm;51449;51.676;5.812;2023-10-09T05:14:40;65.90;50.94;73.38;;
58251;Laerm;51449;51.676;5.812;2023-10-09T05:17:07;63.85;44.41;72.34;;
58251;Laerm;51449;51.676;5.812;2023-10-09T05:19:37;63.94;43.17;77.82;;
58251;Laerm;51449;51.676;5.812;2023-10-09T05:22:16;65.24;50.50;76.11;;
58251;Laerm;51449;51.676;5.812;2023-10-09T05:24:51;65.45;49.90;75.74;;
58251;Laerm;51449;51.676;5.812;2023-10-09T05:27:16;62.11;40.86;74.40;;
58251;Laerm;51449;51.676;5.812;2023-10-09T05:29:40;64.21;40.44;74.74;;
58251;Laerm;51449;51.676;5.812;2023-10-09T05:32:21;65.45;43.43;82.84;;
58251;Laerm;51449;51.676;5.812;2023-10-09T05:34:51;65.27;46.78;76.40;;
58251;Laerm;51449;51.676;5.812;2023-10-09T05:37:22;66.06;53.39;74.41;;
58251;Laerm;51449;51.676;5.812;2023-10-09T05:39:46;65.72;43.72;75.73;;
58251;Laerm;51449;51.676;5.812;2023-10-09T05:42:24;63.33;43.12;75.96;;
58251;Laerm;51449;51.676;5.812;2023-10-09T05:45:05;66.43;49.05;82.27;;
58251;Laerm;51449;51.676;5.812;2023-10-09T05:47:41;67.51;49.96;83.11;;
58251;Laerm;51449;51.676;5.812;2023-10-09T05:50:15;66.23;44.85;76.11;;
58251;Laerm;51449;51.676;5.812;2023-10-09T05:52:37;65.00;51.22;73.85;;
58251;Laerm;51449;51.676;5.812;2023-10-09T05:54:59;64.30;50.31;73.56;;
58251;Laerm;51449;51.676;5.812;2023-10-09T05:57:39;65.99;50.41;76.06;;
58251;Laerm;51449;51.676;5.812;2023-10-09T06:00:19;64.38;49.36;76.66;;
58251;Laerm;51449;51.676;5.812;2023-10-09T06:03:01;67.26;52.05;82.78;;
58251;Laerm;51449;51.676;5.812;2023-10-09T06:05:41;64.49;48.01;76.47;;
58251;Laerm;51449;51.676;5.812;2023-10-09T06:08:04;65.75;49.10;73.63;;
58251;Laerm;51449;51.676;5.812;2023-10-09T06:10:28;65.42;46.15;77.37;;
58251;Laerm;51449;51.676;5.812;2023-10-09T06:13:01;65.44;46.05;74.23;;
58251;Laerm;51449;51.676;5.812;2023-10-09T06:15:26;64.54;45.65;74.48;;
58251;Laerm;51449;51.676;5.812;2023-10-09T06:18:14;66.70;46.44;77.85;;
58251;Laerm;51449;51.676;5.812;2023-10-09T06:20:48;64.46;47.07;84.16;;
58251;Laerm;51449;51.676;5.812;2023-10-09T06:23:41;65.52;48.54;74.73;;
58251;Laerm;51449;51.676;5.812;2023-10-09T06:26:21;65.86;45.96;75.32;;
58251;Laerm;51449;51.676;5.812;2023-10-09T06:28:46;65.24;45.48;75.58;;
58251;Laerm;51449;51.676;5.812;2023-10-09T06:31:13;65.82;47.63;75.37;;
58251;Laerm;51449;51.676;5.812;2023-10-09T06:34:08;64.51;43.65;81.03;;
58251;Laerm;51449;51.676;5.812;2023-10-09T06:36:38;65.57;47.54;75.36;;
58251;Laerm;51449;51.676;5.812;2023-10-09T06:39:15;66.01;47.42;79.13;;
58251;Laerm;51449;51.676;5.812;2023-10-09T06:41:55;65.34;41.82;75.16;;
58251;Laerm;51449;51.676;5.812;2023-10-09T06:44:33;65.47;48.49;73.11;;
58251;Laerm;51449;51.676;5.812;2023-10-09T06:47:13;66.64;51.99;76.56;;
58251;Laerm;51449;51.676;5.812;2023-10-09T06:49:35;64.53;43.10;73.60;;
58251;Laerm;51449;51.676;5.812;2023-10-09T06:51:58;65.83;45.84;74.17;;
58251;Laerm;51449;51.676;5.812;2023-10-09T06:54:35;65.64;44.74;75.26;;
58251;Laerm;51449;51.676;5.812;2023-10-09T06:56:59;66.71;52.18;76.09;;
58251;Laerm;51449;51.676;5.812;2023-10-09T06:59:40;69.26;51.35;81.52;;
58251;Laerm;51449;51.676;5.812;2023-10-09T07:02:25;66.34;49.43;75.04;;
58251;Laerm;51449;51.676;5.812;2023-10-09T07:04:47;64.19;42.13;74.86;;
58251;Laerm;51449;51.676;5.812;2023-10-09T07:07:09;64.77;42.53;81.64;;
58251;Laerm;51449;51.676;5.812;2023-10-09T07:09:42;63.72;41.68;74.50;;
58251;Laerm;51449;51.676;5.812;2023-10-09T07:12:05;64.79;41.92;76.43;;
58251;Laerm;51449;51.676;5.812;2023-10-09T07:14:31;67.80;46.50;77.44;;
58251;Laerm;51449;51.676;5.812;2023-10-09T07:16:58;62.58;42.16;74.54;;
58251;Laerm;51449;51.676;5.812;2023-10-09T07:19:21;62.91;43.73;73.40;;
58251;Laerm;51449;51.676;5.812;2023-10-09T07:21:55;66.84;45.44;77.32;;
58251;Laerm;51449;51.676;5.812;2023-10-09T07:24:17;65.66;41.90;81.22;;
58251;Laerm;51449;51.676;5.812;2023-10-09T07:26:42;64.27;43.66;78.27;;
58251;Laerm;51449;51.676;5.812;2023-10-09T07:29:14;61.21;39.27;73.25;;
58251;Laerm;51449;51.676;5.812;2023-10-09T07:31:39;60.88;40.02;74.31;;
58251;Laerm;51449;51.676;5.812;2023-10-09T07:34:02;64.72;45.01;74.88;;
58251;Laerm;51449;51.676;5.812;2023-10-09T07:36:28;63.43;40.54;76.62;;
58251;Laerm;51449;51.676;5.812;2023-10-09T07:38:57;65.49;39.75;75.91;;
58251;Laerm;51449;51.676;5.812;2023-10-09T07:41:21;62.93;43.35;74.14;;
58251;Laerm;51449;51.676;5.812;2023-10-09T07:43:42;63.63;38.38;77.19;;
58251;Laerm;51449;51.676;5.812;2023-10-09T07:46:06;64.04;39.66;73.01;;
58251;Laerm;51449;51.676;5.812;2023-10-09T07:48:46;65.30;40.28;77.26;;
58251;Laerm;51449;51.676;5.812;2023-10-09T07:51:15;65.77;44.70;78.33;;
58251;Laerm;51449;51.676;5.812;2023-10-09T07:53:38;71.49;44.05;83.50;;
58251;Laerm;51449;51.676;5.812;2023-10-09T07:56:06;68.03;42.08;83.63;;
58251;Laerm;51449;51.676;5.812;2023-10-09T07:58:29;68.79;49.27;82.34;;
58251;Laerm;51449;51.676;5.812;2023-10-09T08:00:55;64.72;44.62;77.89;;
58251;Laerm;51449;51.676;5.812;2023-10-09T08:03:30;63.15;41.73;77.89;;
58251;Laerm;51449;51.676;5.812;2023-10-09T08:05:54;62.52;41.24;73.74;;
58251;Laerm;51449;51.676;5.812;2023-10-09T08:08:28;62.86;43.30;73.93;;
58251;Laerm;51449;51.676;5.812;2023-10-09T08:10:59;68.05;45.74;81.16;;
58251;Laerm;51449;51.676;5.812;2023-10-09T08:13:40;65.10;41.97;78.99;;
58251;Laerm;51449;51.676;5.812;2023-10-09T08:16:30;64.75;47.85;75.54;;
58251;Laerm;51449;51.676;5.812;2023-10-09T08:18:58;65.27;44.15;84.25;;
58251;Laerm;51449;51.676;5.812;2023-10-09T08:21:20;63.13;44.93;74.38;;
58251;Laerm;51449;51.676;5.812;2023-10-09T08:24:02;63.29;45.17;76.58;;
58251;Laerm;51449;51.676;5.812;2023-10-09T08:26:26;63.58;43.02;75.96;;
58251;Laerm;51449;51.676;5.812;2023-10-09T08:28:51;67.81;45.42;78.66;;
58251;Laerm;51449;51.676;5.812;2023-10-09T08:31:16;60.55;43.97;78.99;;
58251;Laerm;51449;51.676;5.812;2023-10-09T08:33:56;66.02;43.67;78.10;;
58251;Laerm;51449;51.676;5.812;2023-10-09T08:36:25;64.46;43.37;75.66;;
58251;Laerm;51449;51.676;5.812;2023-10-09T08:38:57;62.80;41.98;74.38;;
58251;Laerm;51449;51.676;5.812;2023-10-09T08:41:20;65.87;47.27;78.03;;
58251;Laerm;51449;51.676;5.812;2023-10-09T08:43:51;65.32;41.29;77.45;;
58251;Laerm;51449;51.676;5.812;2023-10-09T08:46:14;66.59;44.57;79.84;;
58251;Laerm;51449;51.676;5.812;2023-10-09T08:48:39;63.69;43.18;74.15;;
58251;Laerm;51449;51.676;5.812;2023-10-09T08:51:01;68.06;43.82;81.34;;
58251;Laerm;51449;51.676;5.812;2023-10-09T08:53:28;64.84;45.66;74.09;;
58251;Laerm;51449;51.676;5.812;2023-10-09T08:55:50;65.88;47.72;76.72;;
58251;Laerm;51449;51.676;5.812;2023-10-09T08:58:17;61.95;42.67;71.78;;
58251;Laerm;51449;51.676;5.812;2023-10-09T09:00:47;62.89;43.13;73.80;;
58251;Laerm;51449;51.676;5.812;2023-10-09T09:03:09;68.27;45.25;92.75;;
58251;Laerm;51449;51.676;5.812;2023-10-09T09:05:31;67.14;42.41;81.76;;
58251;Laerm;51449;51.676;5.812;2023-10-09T09:07:57;62.57;44.31;73.60;;
58251;Laerm;51449;51.676;5.812;2023-10-09T09:10:28;66.75;48.02;76.47;;
58251;Laerm;51449;51.676;5.812;2023-10-09T09:12:56;62.36;44.78;75.72;;
58251;Laerm;51449;51.676;5.812;2023-10-09T09:15:27;65.22;45.45;82.01;;
58251;Laerm;51449;51.676;5.812;2023-10-09T09:17:50;64.49;47.59;76.21;;
58251;Laerm;51449;51.676;5.812;2023-10-09T09:20:25;62.67;44.07;74.80;;
58251;Laerm;51449;51.676;5.812;2023-10-09T09:22:57;66.93;42.31;80.80;;
58251;Laerm;51449;51.676;5.812;2023-10-09T09:25:28;62.05;40.56;73.53;;
58251;Laerm;51449;51.676;5.812;2023-10-09T09:28:00;64.18;41.19;73.10;;
58251;Laerm;51449;51.676;5.812;2023-10-09T09:30:31;63.10;43.14;75.31;;
58251;Laerm;51449;51.676;5.812;2023-10-09T09:32:57;64.30;45.12;82.33;;
58251;Laerm;51449;51.676;5.812;2023-10-09T09:35:37;66.28;43.82;78.34;;
58251;Laerm;51449;51.676;5.812;2023-10-09T09:37:59;64.89;43.96;77.85;;
58251;Laerm;51449;51.676;5.812;2023-10-09T09:40:26;62.00;39.50;74.59;;
58251;Laerm;51449;51.676;5.812;2023-10-09T09:43:03;63.45;40.33;74.29;;
58251;Laerm;51449;51.676;5.812;2023-10-09T09:45:36;62.46;39.90;77.04;;
58251;Laerm;51449;51.676;5.812;2023-10-09T09:48:02;62.06;42.97;72.45;;
58251;Laerm;51449;51.676;5.812;2023-10-09T09:50:28;64.21;43.22;76.54;;
58251;Laerm;51449;51.676;5.812;2023-10-09T09:52:51;64.87;45.15;81.09;;
58251;Laerm;51449;51.676;5.812;2023-10-09T09:55:16;63.16;44.80;75.24;;
58251;Laerm;51449;51.676;5.812;2023-10-09T09:57:45;67.82;47.06;78.37;;
58251;Laerm;51449;51.676;5.812;2023-10-09T10:00:14;64.74;41.34;76.99;;
58251;Laerm;51449;51.676;5.812;2023-10-09T10:02:51;64.88;45.24;76.48;;
58251;Laerm;51449;51.676;5.812;2023-10-09T10:05:18;63.69;45.47;73.68;;
58251;Laerm;51449;51.676;5.812;2023-10-09T10:07:40;64.28;45.19;73.33;;
58251;Laerm;51449;51.676;5.812;2023-10-09T10:10:36;64.37;47.50;73.45;;
58251;Laerm;51449;51.676;5.812;2023-10-09T10:13:09;67.92;52.27;79.13;;
58251;Laerm;51449;51.676;5.812;2023-10-09T10:18:20;63.18;42.15;71.82;;
58251;Laerm;51449;51.676;5.812;2023-10-09T10:23:35;64.86;42.84;74.88;;
58251;Laerm;51449;51.676;5.812;2023-10-09T10:26:17;64.66;44.47;74.48;;
58251;Laerm;51449;51.676;5.812;2023-10-09T10:28:42;64.48;44.52;72.07;;
58251;Laerm;51449;51.676;5.812;2023-10-09T10:31:07;63.80;42.09;76.57;;
58251;Laerm;51449;51.676;5.812;2023-10-09T10:36:18;67.13;46.86;78.25;;
58251;Laerm;51449;51.676;5.812;2023-10-09T10:39:00;63.71;44.17;74.27;;
58251;Laerm;51449;51.676;5.812;2023-10-09T10:41:33;63.63;40.77;74.83;;
58251;Laerm;51449;51.676;5.812;2023-10-09T10:44:00;65.17;48.17;75.31;;
58251;Laerm;51449;51.676;5.812;2023-10-09T10:46:42;63.15;41.29;77.96;;
58251;Laerm;51449;51.676;5.812;2023-10-09T10:49:08;64.88;46.62;75.41;;
58251;Laerm;51449;51.676;5.812;2023-10-09T10:51:35;65.21;44.67;80.36;;
58251;Laerm;51449;51.676;5.812;2023-10-09T10:54:01;63.64;40.99;72.61;;
58251;Laerm;51449;51.676;5.812;2023-10-09T10:56:43;63.75;45.99;73.59;;
58251;Laerm;51449;51.676;5.812;2023-10-09T10:59:06;66.77;50.47;76.55;;
58251;Laerm;51449;51.676;5.812;2023-10-09T11:01:35;64.57;47.11;76.94;;
58251;Laerm;51449;51.676;5.812;2023-10-09T11:04:16;62.57;38.56;74.88;;
58251;Laerm;51449;51.676;5.812;2023-10-09T11:06:54;62.11;42.24;71.15;;
58251;Laerm;51449;51.676;5.812;2023-10-09T11:09:28;63.72;46.73;73.71;;
58251;Laerm;51449;51.676;5.812;2023-10-09T11:12:13;63.68;45.71;76.23;;
58251;Laerm;51449;51.676;5.812;2023-10-09T11:14:46;70.09;48.44;84.79;;
58251;Laerm;51449;51.676;5.812;2023-10-09T11:17:27;63.96;44.98;75.71;;
58251;Laerm;51449;51.676;5.812;2023-10-09T11:19:51;65.64;45.23;73.59;;
58251;Laerm;51449;51.676;5.812;2023-10-09T11:22:14;64.05;40.31;87.43;;
58251;Laerm;51449;51.676;5.812;2023-10-09T11:24:56;64.65;45.59;83.74;;
58251;Laerm;51449;51.676;5.812;2023-10-09T11:27:32;64.63;48.67;75.54;;
58251;Laerm;51449;51.676;5.812;2023-10-09T11:29:54;63.55;46.74;78.10;;
58251;Laerm;51449;51.676;5.812;2023-10-09T11:32:21;63.13;44.70;73.99;;
58251;Laerm;51449;51.676;5.812;2023-10-09T11:34:49;66.95;49.69;77.43;;
58251;Laerm;51449;51.676;5.812;2023-10-09T11:37:15;65.28;49.20;75.53;;
58251;Laerm;51449;51.676;5.812;2023-10-09T11:39:38;63.71;47.12;74.21;;
58251;Laerm;51449;51.676;5.812;2023-10-09T11:42:20;66.88;49.72;79.74;;
58251;Laerm;51449;51.676;5.812;2023-10-09T11:45:21;62.91;45.29;73.63;;
58251;Laerm;51449;51.676;5.812;2023-10-09T11:47:47;63.75;45.19;76.20;;
58251;Laerm;51449;51.676;5.812;2023-10-09T11:50:43;68.81;47.15;87.71;;
58251;Laerm;51449;51.676;5.812;2023-10-09T11:53:06;64.18;45.74;74.70;;
58251;Laerm;51449;51.676;5.812;2023-10-09T11:55:31;65.55;44.57;77.90;;
58251;Laerm;51449;51.676;5.812;2023-10-09T11:57:54;64.64;45.64;77.44;;
58251;Laerm;51449;51.676;5.812;2023-10-09T12:00:17;65.37;46.22;77.73;;
58251;Laerm;51449;51.676;5.812;2023-10-09T12:02:51;67.30;45.85;79.15;;
58251;Laerm;51449;51.676;5.812;2023-10-09T12:05:14;63.64;46.88;72.87;;
58251;Laerm;51449;51.676;5.812;2023-10-09T12:07:38;63.19;46.94;73.20;;
58251;Laerm;51449;51.676;5.812;2023-10-09T12:10:00;65.53;47.43;79.59;;
58251;Laerm;51449;51.676;5.812;2023-10-09T12:12:22;63.99;42.70;76.39;;
58251;Laerm;51449;51.676;5.812;2023-10-09T12:14:47;63.75;48.09;73.67;;
58251;Laerm;51449;51.676;5.812;2023-10-09T12:17:13;66.71;49.10;79.63;;
58251;Laerm;51449;51.676;5.812;2023-10-09T12:19:37;65.77;50.19;75.12;;
58251;Laerm;51449;51.676;5.812;2023-10-09T12:22:00;64.21;50.02;76.56;;
58251;Laerm;51449;51.676;5.812;2023-10-09T12:24:22;65.08;52.08;72.38;;
58251;Laerm;51449;51.676;5.812;2023-10-09T12:26:43;64.52;41.33;75.91;;
58251;Laerm;51449;51.676;5.812;2023-10-09T12:29:07;65.17;49.22;74.14;;
58251;Laerm;51449;51.676;5.812;2023-10-09T12:31:33;60.46;43.03;73.87;;
58251;Laerm;51449;51.676;5.812;2023-10-09T12:33:57;62.69;46.14;74.14;;
58251;Laerm;51449;51.676;5.812;2023-10-09T12:36:20;64.85;50.84;75.29;;
58251;Laerm;51449;51.676;5.812;2023-10-09T12:38:42;64.45;45.24;75.81;;
58251;Laerm;51449;51.676;5.812;2023-10-09T12:41:07;63.97;44.74;76.94;;
58251;Laerm;51449;51.676;5.812;2023-10-09T12:43:41;64.34;44.66;76.37;;
58251;Laerm;51449;51.676;5.812;2023-10-09T12:46:06;63.96;43.60;74.51;;
58251;Laerm;51449;51.676;5.812;2023-10-09T12:48:28;64.76;45.54;75.28;;
58251;Laerm;51449;51.676;5.812;2023-10-09T12:50:53;65.07;46.40;74.81;;
58251;Laerm;51449;51.676;5.812;2023-10-09T12:53:15;65.99;47.48;78.58;;
58251;Laerm;51449;51.676;5.812;2023-10-09T12:55:40;69.58;51.74;81.13;;
58251;Laerm;51449;51.676;5.812;2023-10-09T12:58:05;62.84;48.92;71.91;;
58251;Laerm;51449;51.676;5.812;2023-10-09T13:00:30;65.74;44.21;77.16;;
58251;Laerm;51449;51.676;5.812;2023-10-09T13:02:54;64.99;43.60;76.87;;
58251;Laerm;51449;51.676;5.812;2023-10-09T13:05:16;67.03;50.77;79.68;;
58251;Laerm;51449;51.676;5.812;2023-10-09T13:07:47;65.24;44.69;74.74;;
58251;Laerm;51449;51.676;5.812;2023-10-09T13:10:10;62.87;48.07;72.32;;
58251;Laerm;51449;51.676;5.812;2023-10-09T13:12:35;64.27;45.19;73.09;;
58251;Laerm;51449;51.676;5.812;2023-10-09T13:15:04;63.03;44.61;72.46;;
58251;Laerm;51449;51.676;5.812;2023-10-09T13:17:30;63.84;43.50;75.69;;
58251;Laerm;51449;51.676;5.812;2023-10-09T13:19:56;64.55;44.19;74.68;;
58251;Laerm;51449;51.676;5.812;2023-10-09T13:22:17;63.99;45.81;73.14;;
58251;Laerm;51449;51.676;5.812;2023-10-09T13:24:39;66.66;48.61;76.11;;
58251;Laerm;51449;51.676;5.812;2023-10-09T13:27:01;64.87;49.00;76.01;;
58251;Laerm;51449;51.676;5.812;2023-10-09T13:29:26;63.19;44.02;75.15;;
58251;Laerm;51449;51.676;5.812;2023-10-09T13:31:50;66.15;44.29;76.09;;
58251;Laerm;51449;51.676;5.812;2023-10-09T13:34:20;65.02;42.45;74.90;;
58251;Laerm;51449;51.676;5.812;2023-10-09T13:36:42;64.90;41.10;79.00;;
58251;Laerm;51449;51.676;5.812;2023-10-09T13:39:14;65.49;46.23;74.57;;
58251;Laerm;51449;51.676;5.812;2023-10-09T13:41:47;63.59;43.53;76.33;;
58251;Laerm;51449;51.676;5.812;2023-10-09T13:44:09;64.77;45.31;74.74;;
58251;Laerm;51449;51.676;5.812;2023-10-09T13:46:31;66.51;49.11;77.54;;
58251;Laerm;51449;51.676;5.812;2023-10-09T13:48:53;65.98;47.75;78.59;;
58251;Laerm;51449;51.676;5.812;2023-10-09T13:51:15;66.37;48.55;80.03;;
58251;Laerm;51449;51.676;5.812;2023-10-09T13:53:41;63.22;44.63;77.95;;
58251;Laerm;51449;51.676;5.812;2023-10-09T13:56:11;63.78;41.42;76.35;;
58251;Laerm;51449;51.676;5.812;2023-10-09T13:58:36;64.98;50.45;74.05;;
58251;Laerm;51449;51.676;5.812;2023-10-09T14:01:02;66.18;49.72;75.76;;